sensor_id;sensor_type;location;lat;lon;timestamp;P1;durP1;ratioP1;P2;durP2;ratioP2
20140;SDS011;10231;47.702;9.826;2023-10-19T00:00:39;22.63;;;20.10;;
20140;SDS011;10231;47.702;9.826;2023-10-19T00:03:05;22.67;;;20.30;;
20140;SDS011;10231;47.702;9.826;2023-10-19T00:05:32;24.30;;;20.40;;
20140;SDS011;10231;47.702;9.826;2023-10-19T00:08:01;23.17;;;20.50;;
20140;SDS011;10231;47.702;9.826;2023-10-19T00:10:47;23.73;;;20.23;;
20140;SDS011;10231;47.702;9.826;2023-10-19T00:13:28;26.63;;;21.67;;
20140;SDS011;10231;47.702;9.826;2023-10-19T00:15:55;23.13;;;19.40;;
20140;SDS011;10231;47.702;9.826;2023-10-19T00:18:22;22.97;;;19.77;;
20140;SDS011;10231;47.702;9.826;2023-10-19T00:20:53;23.80;;;19.67;;
20140;SDS011;10231;47.702;9.826;2023-10-19T00:23:36;23.00;;;20.27;;
20140;SDS011;10231;47.702;9.826;2023-10-19T00:26:03;22.77;;;20.00;;
20140;SDS011;10231;47.702;9.826;2023-10-19T00:28:40;25.83;;;21.20;;
20140;SDS011;10231;47.702;9.826;2023-10-19T00:31:05;22.57;;;20.03;;
20140;SDS011;10231;47.702;9.826;2023-10-19T00:33:37;24.73;;;20.53;;
20140;SDS011;10231;47.702;9.826;2023-10-19T00:36:09;23.40;;;20.90;;
20140;SDS011;10231;47.702;9.826;2023-10-19T00:38:38;22.87;;;20.37;;
20140;SDS011;10231;47.702;9.826;2023-10-19T00:41:05;24.83;;;21.30;;
20140;SDS011;10231;47.702;9.826;2023-10-19T00:43:35;24.93;;;21.80;;
20140;SDS011;10231;47.702;9.826;2023-10-19T00:46:07;27.33;;;21.17;;
20140;SDS011;10231;47.702;9.826;2023-10-19T00:48:53;23.90;;;21.30;;
20140;SDS011;10231;47.702;9.826;2023-10-19T00:51:31;25.23;;;20.10;;
20140;SDS011;10231;47.702;9.826;2023-10-19T00:54:05;23.37;;;20.23;;
20140;SDS011;10231;47.702;9.826;2023-10-19T00:56:38;23.43;;;20.77;;
20140;SDS011;10231;47.702;9.826;2023-10-19T00:59:10;22.87;;;20.40;;
20140;SDS011;10231;47.702;9.826;2023-10-19T01:01:40;24.00;;;21.00;;
20140;SDS011;10231;47.702;9.826;2023-10-19T01:04:10;22.27;;;19.97;;
20140;SDS011;10231;47.702;9.826;2023-10-19T01:06:40;22.87;;;20.47;;
20140;SDS011;10231;47.702;9.826;2023-10-19T01:09:17;23.30;;;20.80;;
20140;SDS011;10231;47.702;9.826;2023-10-19T01:11:45;24.37;;;20.33;;
20140;SDS011;10231;47.702;9.826;2023-10-19T01:14:20;23.70;;;20.60;;
20140;SDS011;10231;47.702;9.826;2023-10-19T01:16:47;23.53;;;21.07;;
20140;SDS011;10231;47.702;9.826;2023-10-19T01:19:14;24.60;;;21.47;;
20140;SDS011;10231;47.702;9.826;2023-10-19T01:21:43;24.87;;;20.03;;
20140;SDS011;10231;47.702;9.826;2023-10-19T01:24:11;22.93;;;20.47;;
20140;SDS011;10231;47.702;9.826;2023-10-19T01:26:41;22.03;;;19.30;;
20140;SDS011;10231;47.702;9.826;2023-10-19T01:29:07;22.97;;;20.47;;
20140;SDS011;10231;47.702;9.826;2023-10-19T01:31:41;22.37;;;19.97;;
20140;SDS011;10231;47.702;9.826;2023-10-19T01:34:30;22.33;;;19.93;;
20140;SDS011;10231;47.702;9.826;2023-10-19T01:36:58;21.73;;;19.27;;
20140;SDS011;10231;47.702;9.826;2023-10-19T01:39:27;21.70;;;19.50;;
20140;SDS011;10231;47.702;9.826;2023-10-19T01:41:53;22.53;;;20.13;;
20140;SDS011;10231;47.702;9.826;2023-10-19T01:44:19;22.90;;;20.07;;
20140;SDS011;10231;47.702;9.826;2023-10-19T01:46:46;22.83;;;20.47;;
20140;SDS011;10231;47.702;9.826;2023-10-19T01:49:13;22.77;;;19.93;;
20140;SDS011;10231;47.702;9.826;2023-10-19T01:51:39;22.60;;;20.23;;
20140;SDS011;10231;47.702;9.826;2023-10-19T01:54:07;23.07;;;20.60;;
20140;SDS011;10231;47.702;9.826;2023-10-19T01:56:33;22.73;;;20.33;;
20140;SDS011;10231;47.702;9.826;2023-10-19T01:59:00;26.10;;;20.80;;
20140;SDS011;10231;47.702;9.826;2023-10-19T02:01:26;23.60;;;20.97;;
20140;SDS011;10231;47.702;9.826;2023-10-19T02:03:52;25.00;;;22.23;;
20140;SDS011;10231;47.702;9.826;2023-10-19T02:06:25;26.37;;;21.57;;
20140;SDS011;10231;47.702;9.826;2023-10-19T02:09:02;24.43;;;21.37;;
20140;SDS011;10231;47.702;9.826;2023-10-19T02:11:42;25.50;;;21.87;;
20140;SDS011;10231;47.702;9.826;2023-10-19T02:14:10;25.13;;;22.43;;
20140;SDS011;10231;47.702;9.826;2023-10-19T02:16:46;23.27;;;20.83;;
20140;SDS011;10231;47.702;9.826;2023-10-19T02:19:17;23.43;;;20.87;;
20140;SDS011;10231;47.702;9.826;2023-10-19T02:21:45;22.07;;;19.77;;
20140;SDS011;10231;47.702;9.826;2023-10-19T02:24:13;22.40;;;19.90;;
20140;SDS011;10231;47.702;9.826;2023-10-19T02:26:40;22.97;;;20.57;;
20140;SDS011;10231;47.702;9.826;2023-10-19T02:29:06;21.63;;;19.33;;
20140;SDS011;10231;47.702;9.826;2023-10-19T02:31:35;21.63;;;19.33;;
20140;SDS011;10231;47.702;9.826;2023-10-19T02:34:05;21.83;;;19.57;;
20140;SDS011;10231;47.702;9.826;2023-10-19T02:36:35;23.43;;;20.03;;
20140;SDS011;10231;47.702;9.826;2023-10-19T02:39:06;21.20;;;19.00;;
20140;SDS011;10231;47.702;9.826;2023-10-19T02:44:02;21.37;;;19.07;;
20140;SDS011;10231;47.702;9.826;2023-10-19T02:46:38;20.77;;;18.57;;
20140;SDS011;10231;47.702;9.826;2023-10-19T02:49:04;20.97;;;18.87;;
20140;SDS011;10231;47.702;9.826;2023-10-19T02:51:40;21.93;;;19.43;;
20140;SDS011;10231;47.702;9.826;2023-10-19T02:54:10;22.33;;;20.00;;
20140;SDS011;10231;47.702;9.826;2023-10-19T02:56:43;21.00;;;18.80;;
20140;SDS011;10231;47.702;9.826;2023-10-19T02:59:14;22.33;;;19.50;;
20140;SDS011;10231;47.702;9.826;2023-10-19T03:01:41;21.70;;;18.57;;
20140;SDS011;10231;47.702;9.826;2023-10-19T03:04:09;21.73;;;19.43;;
20140;SDS011;10231;47.702;9.826;2023-10-19T03:06:37;23.23;;;19.90;;
20140;SDS011;10231;47.702;9.826;2023-10-19T03:09:05;27.77;;;19.33;;
20140;SDS011;10231;47.702;9.826;2023-10-19T03:11:47;20.73;;;18.63;;
20140;SDS011;10231;47.702;9.826;2023-10-19T03:14:17;20.23;;;18.13;;
20140;SDS011;10231;47.702;9.826;2023-10-19T03:16:43;21.87;;;19.57;;
20140;SDS011;10231;47.702;9.826;2023-10-19T03:19:08;21.33;;;19.17;;
20140;SDS011;10231;47.702;9.826;2023-10-19T03:21:34;21.30;;;19.10;;
20140;SDS011;10231;47.702;9.826;2023-10-19T03:24:13;21.13;;;18.93;;
20140;SDS011;10231;47.702;9.826;2023-10-19T03:26:58;18.03;;;16.23;;
20140;SDS011;10231;47.702;9.826;2023-10-19T03:29:24;19.77;;;17.77;;
20140;SDS011;10231;47.702;9.826;2023-10-19T03:31:57;18.90;;;17.00;;
20140;SDS011;10231;47.702;9.826;2023-10-19T03:34:26;19.07;;;17.13;;
20140;SDS011;10231;47.702;9.826;2023-10-19T03:36:52;19.13;;;17.00;;
20140;SDS011;10231;47.702;9.826;2023-10-19T03:39:19;20.83;;;18.63;;
20140;SDS011;10231;47.702;9.826;2023-10-19T03:41:46;18.70;;;16.70;;
20140;SDS011;10231;47.702;9.826;2023-10-19T03:44:14;20.63;;;16.87;;
20140;SDS011;10231;47.702;9.826;2023-10-19T03:46:52;22.30;;;19.90;;
20140;SDS011;10231;47.702;9.826;2023-10-19T03:49:21;20.00;;;17.90;;
20140;SDS011;10231;47.702;9.826;2023-10-19T03:51:48;19.37;;;17.37;;
20140;SDS011;10231;47.702;9.826;2023-10-19T03:54:46;21.00;;;17.03;;
20140;SDS011;10231;47.702;9.826;2023-10-19T03:57:14;19.00;;;17.10;;
20140;SDS011;10231;47.702;9.826;2023-10-19T03:59:44;18.90;;;17.00;;
20140;SDS011;10231;47.702;9.826;2023-10-19T04:02:14;17.80;;;15.93;;
20140;SDS011;10231;47.702;9.826;2023-10-19T04:04:45;17.70;;;15.90;;
20140;SDS011;10231;47.702;9.826;2023-10-19T04:07:13;18.60;;;16.70;;
20140;SDS011;10231;47.702;9.826;2023-10-19T04:09:46;19.07;;;17.17;;
20140;SDS011;10231;47.702;9.826;2023-10-19T04:12:29;17.80;;;16.10;;
20140;SDS011;10231;47.702;9.826;2023-10-19T04:15:00;17.80;;;16.00;;
20140;SDS011;10231;47.702;9.826;2023-10-19T04:17:35;18.20;;;16.33;;
20140;SDS011;10231;47.702;9.826;2023-10-19T04:20:01;17.27;;;15.47;;
20140;SDS011;10231;47.702;9.826;2023-10-19T04:22:38;19.90;;;16.77;;
20140;SDS011;10231;47.702;9.826;2023-10-19T04:25:04;19.90;;;17.80;;
20140;SDS011;10231;47.702;9.826;2023-10-19T04:27:31;18.43;;;16.50;;
20140;SDS011;10231;47.702;9.826;2023-10-19T04:30:00;18.43;;;16.53;;
20140;SDS011;10231;47.702;9.826;2023-10-19T04:32:26;18.33;;;16.40;;
20140;SDS011;10231;47.702;9.826;2023-10-19T04:34:52;18.90;;;16.03;;
20140;SDS011;10231;47.702;9.826;2023-10-19T04:37:18;18.30;;;16.47;;
20140;SDS011;10231;47.702;9.826;2023-10-19T04:39:44;17.13;;;15.43;;
20140;SDS011;10231;47.702;9.826;2023-10-19T04:42:10;17.77;;;15.97;;
20140;SDS011;10231;47.702;9.826;2023-10-19T04:44:37;17.17;;;15.43;;
20140;SDS011;10231;47.702;9.826;2023-10-19T04:47:02;16.83;;;15.13;;
20140;SDS011;10231;47.702;9.826;2023-10-19T04:49:28;17.63;;;15.90;;
20140;SDS011;10231;47.702;9.826;2023-10-19T04:51:53;17.10;;;15.33;;
20140;SDS011;10231;47.702;9.826;2023-10-19T04:54:19;15.93;;;14.33;;
20140;SDS011;10231;47.702;9.826;2023-10-19T04:56:44;17.63;;;15.83;;
20140;SDS011;10231;47.702;9.826;2023-10-19T04:59:10;52.43;;;46.73;;
20140;SDS011;10231;47.702;9.826;2023-10-19T05:01:36;57.33;;;50.00;;
20140;SDS011;10231;47.702;9.826;2023-10-19T05:04:02;31.07;;;27.77;;
20140;SDS011;10231;47.702;9.826;2023-10-19T05:06:28;19.70;;;17.70;;
20140;SDS011;10231;47.702;9.826;2023-10-19T05:08:53;22.07;;;19.40;;
20140;SDS011;10231;47.702;9.826;2023-10-19T05:11:19;20.20;;;18.10;;
20140;SDS011;10231;47.702;9.826;2023-10-19T05:13:45;18.10;;;16.20;;
20140;SDS011;10231;47.702;9.826;2023-10-19T05:16:10;18.50;;;16.50;;
20140;SDS011;10231;47.702;9.826;2023-10-19T05:18:36;17.00;;;15.30;;
20140;SDS011;10231;47.702;9.826;2023-10-19T05:21:02;16.57;;;14.97;;
20140;SDS011;10231;47.702;9.826;2023-10-19T05:23:27;16.17;;;14.57;;
20140;SDS011;10231;47.702;9.826;2023-10-19T05:25:58;18.60;;;16.60;;
20140;SDS011;10231;47.702;9.826;2023-10-19T05:28:25;17.97;;;16.27;;
20140;SDS011;10231;47.702;9.826;2023-10-19T05:30:51;16.17;;;14.50;;
20140;SDS011;10231;47.702;9.826;2023-10-19T05:33:17;17.10;;;15.50;;
20140;SDS011;10231;47.702;9.826;2023-10-19T05:35:49;16.10;;;14.57;;
20140;SDS011;10231;47.702;9.826;2023-10-19T05:38:16;16.37;;;14.87;;
20140;SDS011;10231;47.702;9.826;2023-10-19T05:40:44;15.73;;;14.13;;
20140;SDS011;10231;47.702;9.826;2023-10-19T05:43:10;15.60;;;14.10;;
20140;SDS011;10231;47.702;9.826;2023-10-19T05:45:36;15.40;;;14.00;;
20140;SDS011;10231;47.702;9.826;2023-10-19T05:48:05;15.77;;;14.17;;
20140;SDS011;10231;47.702;9.826;2023-10-19T05:50:34;14.80;;;13.30;;
20140;SDS011;10231;47.702;9.826;2023-10-19T05:53:01;14.13;;;12.77;;
20140;SDS011;10231;47.702;9.826;2023-10-19T05:55:28;15.73;;;13.83;;
20140;SDS011;10231;47.702;9.826;2023-10-19T05:57:54;14.40;;;13.00;;
20140;SDS011;10231;47.702;9.826;2023-10-19T06:00:19;14.23;;;12.83;;
20140;SDS011;10231;47.702;9.826;2023-10-19T06:02:46;14.87;;;13.27;;
20140;SDS011;10231;47.702;9.826;2023-10-19T06:05:16;15.37;;;13.73;;
20140;SDS011;10231;47.702;9.826;2023-10-19T06:07:43;16.00;;;14.40;;
20140;SDS011;10231;47.702;9.826;2023-10-19T06:10:11;15.20;;;13.70;;
20140;SDS011;10231;47.702;9.826;2023-10-19T06:12:40;16.63;;;14.00;;
20140;SDS011;10231;47.702;9.826;2023-10-19T06:15:07;16.93;;;15.23;;
20140;SDS011;10231;47.702;9.826;2023-10-19T06:17:33;16.73;;;14.70;;
20140;SDS011;10231;47.702;9.826;2023-10-19T06:19:58;16.27;;;14.57;;
20140;SDS011;10231;47.702;9.826;2023-10-19T06:22:25;15.60;;;13.87;;
20140;SDS011;10231;47.702;9.826;2023-10-19T06:24:50;14.97;;;13.37;;
20140;SDS011;10231;47.702;9.826;2023-10-19T06:27:17;15.67;;;13.57;;
20140;SDS011;10231;47.702;9.826;2023-10-19T06:29:42;14.83;;;13.37;;
20140;SDS011;10231;47.702;9.826;2023-10-19T06:32:09;14.47;;;12.97;;
20140;SDS011;10231;47.702;9.826;2023-10-19T06:34:34;13.43;;;12.20;;
20140;SDS011;10231;47.702;9.826;2023-10-19T06:37:00;13.83;;;12.53;;
20140;SDS011;10231;47.702;9.826;2023-10-19T06:39:28;15.07;;;13.57;;
20140;SDS011;10231;47.702;9.826;2023-10-19T06:41:54;14.37;;;13.03;;
20140;SDS011;10231;47.702;9.826;2023-10-19T06:44:19;14.27;;;12.87;;
20140;SDS011;10231;47.702;9.826;2023-10-19T06:46:47;15.77;;;14.17;;
20140;SDS011;10231;47.702;9.826;2023-10-19T06:49:13;15.83;;;14.23;;
20140;SDS011;10231;47.702;9.826;2023-10-19T06:51:40;16.47;;;14.77;;
20140;SDS011;10231;47.702;9.826;2023-10-19T06:54:05;15.20;;;13.63;;
20140;SDS011;10231;47.702;9.826;2023-10-19T06:56:33;16.40;;;14.37;;
20140;SDS011;10231;47.702;9.826;2023-10-19T06:59:02;15.47;;;13.97;;
20140;SDS011;10231;47.702;9.826;2023-10-19T07:01:30;14.43;;;13.03;;
20140;SDS011;10231;47.702;9.826;2023-10-19T07:03:57;17.83;;;14.40;;
20140;SDS011;10231;47.702;9.826;2023-10-19T07:06:23;15.43;;;13.93;;
20140;SDS011;10231;47.702;9.826;2023-10-19T07:08:49;16.73;;;14.93;;
20140;SDS011;10231;47.702;9.826;2023-10-19T07:11:15;16.57;;;14.80;;
20140;SDS011;10231;47.702;9.826;2023-10-19T07:13:40;17.73;;;15.27;;
20140;SDS011;10231;47.702;9.826;2023-10-19T07:16:06;16.80;;;15.07;;
20140;SDS011;10231;47.702;9.826;2023-10-19T07:18:35;18.30;;;15.03;;
20140;SDS011;10231;47.702;9.826;2023-10-19T07:21:01;15.97;;;14.27;;
20140;SDS011;10231;47.702;9.826;2023-10-19T07:23:34;15.70;;;14.17;;
20140;SDS011;10231;47.702;9.826;2023-10-19T07:26:02;15.40;;;13.90;;
20140;SDS011;10231;47.702;9.826;2023-10-19T07:28:29;14.53;;;12.97;;
20140;SDS011;10231;47.702;9.826;2023-10-19T07:30:56;16.07;;;14.40;;
20140;SDS011;10231;47.702;9.826;2023-10-19T07:33:22;17.97;;;15.27;;
20140;SDS011;10231;47.702;9.826;2023-10-19T07:35:49;16.67;;;14.97;;
20140;SDS011;10231;47.702;9.826;2023-10-19T07:38:24;14.80;;;13.27;;
20140;SDS011;10231;47.702;9.826;2023-10-19T07:40:50;15.57;;;13.80;;
20140;SDS011;10231;47.702;9.826;2023-10-19T07:43:19;15.53;;;14.00;;
20140;SDS011;10231;47.702;9.826;2023-10-19T07:45:48;15.23;;;13.70;;
20140;SDS011;10231;47.702;9.826;2023-10-19T07:48:14;15.33;;;13.73;;
20140;SDS011;10231;47.702;9.826;2023-10-19T07:50:40;16.30;;;14.60;;
20140;SDS011;10231;47.702;9.826;2023-10-19T07:53:07;14.70;;;13.20;;
20140;SDS011;10231;47.702;9.826;2023-10-19T07:55:34;14.47;;;12.90;;
20140;SDS011;10231;47.702;9.826;2023-10-19T07:58:00;16.77;;;14.20;;
20140;SDS011;10231;47.702;9.826;2023-10-19T08:00:28;14.87;;;13.13;;
20140;SDS011;10231;47.702;9.826;2023-10-19T08:02:58;15.17;;;13.63;;
20140;SDS011;10231;47.702;9.826;2023-10-19T08:05:24;15.70;;;13.63;;
20140;SDS011;10231;47.702;9.826;2023-10-19T08:07:51;14.57;;;13.10;;
20140;SDS011;10231;47.702;9.826;2023-10-19T08:10:17;14.20;;;12.70;;
20140;SDS011;10231;47.702;9.826;2023-10-19T08:12:44;15.87;;;13.80;;
20140;SDS011;10231;47.702;9.826;2023-10-19T08:15:14;13.93;;;12.53;;
20140;SDS011;10231;47.702;9.826;2023-10-19T08:17:42;14.80;;;13.33;;
20140;SDS011;10231;47.702;9.826;2023-10-19T08:20:19;15.73;;;13.27;;
20140;SDS011;10231;47.702;9.826;2023-10-19T08:22:48;13.40;;;11.97;;
20140;SDS011;10231;47.702;9.826;2023-10-19T08:25:17;14.27;;;12.83;;
20140;SDS011;10231;47.702;9.826;2023-10-19T08:27:43;15.23;;;13.50;;
20140;SDS011;10231;47.702;9.826;2023-10-19T08:30:11;13.77;;;12.47;;
20140;SDS011;10231;47.702;9.826;2023-10-19T08:32:38;14.90;;;13.30;;
20140;SDS011;10231;47.702;9.826;2023-10-19T08:35:05;15.67;;;13.40;;
20140;SDS011;10231;47.702;9.826;2023-10-19T08:37:31;18.07;;;15.47;;
20140;SDS011;10231;47.702;9.826;2023-10-19T08:39:56;15.50;;;13.70;;
20140;SDS011;10231;47.702;9.826;2023-10-19T08:42:23;16.37;;;14.67;;
20140;SDS011;10231;47.702;9.826;2023-10-19T08:44:49;17.10;;;14.13;;
20140;SDS011;10231;47.702;9.826;2023-10-19T08:47:14;15.17;;;13.67;;
20140;SDS011;10231;47.702;9.826;2023-10-19T08:49:40;16.13;;;13.20;;
20140;SDS011;10231;47.702;9.826;2023-10-19T08:52:06;14.87;;;12.87;;
20140;SDS011;10231;47.702;9.826;2023-10-19T08:54:33;14.13;;;12.43;;
20140;SDS011;10231;47.702;9.826;2023-10-19T08:56:59;14.40;;;12.90;;
20140;SDS011;10231;47.702;9.826;2023-10-19T08:59:25;15.73;;;14.13;;
20140;SDS011;10231;47.702;9.826;2023-10-19T09:01:59;16.67;;;13.73;;
20140;SDS011;10231;47.702;9.826;2023-10-19T09:04:28;17.00;;;13.50;;
20140;SDS011;10231;47.702;9.826;2023-10-19T09:06:54;14.77;;;13.03;;
20140;SDS011;10231;47.702;9.826;2023-10-19T09:09:22;15.70;;;13.07;;
20140;SDS011;10231;47.702;9.826;2023-10-19T09:11:51;14.90;;;13.33;;
20140;SDS011;10231;47.702;9.826;2023-10-19T09:14:30;14.33;;;12.73;;
20140;SDS011;10231;47.702;9.826;2023-10-19T09:17:01;17.97;;;12.53;;
20140;SDS011;10231;47.702;9.826;2023-10-19T09:22:05;13.30;;;11.90;;
20140;SDS011;10231;47.702;9.826;2023-10-19T09:24:43;13.57;;;11.93;;
20140;SDS011;10231;47.702;9.826;2023-10-19T09:27:16;12.87;;;11.57;;
20140;SDS011;10231;47.702;9.826;2023-10-19T09:29:42;12.53;;;10.67;;
20140;SDS011;10231;47.702;9.826;2023-10-19T09:32:08;11.63;;;10.43;;
20140;SDS011;10231;47.702;9.826;2023-10-19T09:34:35;10.87;;;9.73;;
20140;SDS011;10231;47.702;9.826;2023-10-19T09:37:01;12.17;;;10.23;;
20140;SDS011;10231;47.702;9.826;2023-10-19T09:39:28;11.60;;;10.40;;
20140;SDS011;10231;47.702;9.826;2023-10-19T09:42:09;10.60;;;9.50;;
20140;SDS011;10231;47.702;9.826;2023-10-19T09:44:40;13.10;;;10.23;;
20140;SDS011;10231;47.702;9.826;2023-10-19T09:47:11;13.47;;;9.50;;
20140;SDS011;10231;47.702;9.826;2023-10-19T09:49:40;11.10;;;9.60;;
20140;SDS011;10231;47.702;9.826;2023-10-19T09:52:07;11.50;;;9.60;;
20140;SDS011;10231;47.702;9.826;2023-10-19T09:54:41;10.00;;;8.47;;
20140;SDS011;10231;47.702;9.826;2023-10-19T10:00:16;9.87;;;8.40;;
20140;SDS011;10231;47.702;9.826;2023-10-19T10:02:48;11.80;;;8.00;;
20140;SDS011;10231;47.702;9.826;2023-10-19T10:10:45;8.97;;;8.10;;
20140;SDS011;10231;47.702;9.826;2023-10-19T10:15:55;10.03;;;7.80;;
20140;SDS011;10231;47.702;9.826;2023-10-19T10:18:31;7.57;;;6.77;;
20140;SDS011;10231;47.702;9.826;2023-10-19T10:23:42;8.47;;;6.83;;
20140;SDS011;10231;47.702;9.826;2023-10-19T10:26:16;7.47;;;6.73;;
20140;SDS011;10231;47.702;9.826;2023-10-19T10:28:46;5.70;;;4.80;;
20140;SDS011;10231;47.702;9.826;2023-10-19T10:31:20;4.87;;;4.40;;
20140;SDS011;10231;47.702;9.826;2023-10-19T10:33:50;4.17;;;3.43;;
20140;SDS011;10231;47.702;9.826;2023-10-19T10:36:19;3.57;;;2.50;;
20140;SDS011;10231;47.702;9.826;2023-10-19T10:38:47;2.80;;;2.60;;
20140;SDS011;10231;47.702;9.826;2023-10-19T10:41:19;2.37;;;2.17;;
20140;SDS011;10231;47.702;9.826;2023-10-19T10:43:50;1.93;;;1.80;;
20140;SDS011;10231;47.702;9.826;2023-10-19T10:46:18;2.93;;;1.80;;
20140;SDS011;10231;47.702;9.826;2023-10-19T10:48:47;2.37;;;1.60;;
20140;SDS011;10231;47.702;9.826;2023-10-19T10:51:23;1.80;;;1.70;;
20140;SDS011;10231;47.702;9.826;2023-10-19T10:53:51;3.13;;;2.10;;
20140;SDS011;10231;47.702;9.826;2023-10-19T10:56:18;3.17;;;2.33;;
20140;SDS011;10231;47.702;9.826;2023-10-19T10:58:44;4.40;;;2.60;;
20140;SDS011;10231;47.702;9.826;2023-10-19T11:01:10;3.63;;;2.70;;
20140;SDS011;10231;47.702;9.826;2023-10-19T11:03:38;3.03;;;2.37;;
20140;SDS011;10231;47.702;9.826;2023-10-19T11:06:11;3.07;;;2.60;;
20140;SDS011;10231;47.702;9.826;2023-10-19T11:08:38;3.50;;;2.73;;
20140;SDS011;10231;47.702;9.826;2023-10-19T11:11:08;4.13;;;2.13;;
20140;SDS011;10231;47.702;9.826;2023-10-19T11:13:38;2.57;;;2.27;;
20140;SDS011;10231;47.702;9.826;2023-10-19T11:16:05;2.90;;;2.13;;
20140;SDS011;10231;47.702;9.826;2023-10-19T11:21:12;3.43;;;2.20;;
20140;SDS011;10231;47.702;9.826;2023-10-19T11:23:43;2.93;;;2.37;;
20140;SDS011;10231;47.702;9.826;2023-10-19T11:26:10;3.10;;;2.33;;
20140;SDS011;10231;47.702;9.826;2023-10-19T11:28:37;3.23;;;2.10;;
20140;SDS011;10231;47.702;9.826;2023-10-19T11:31:17;6.37;;;2.57;;
20140;SDS011;10231;47.702;9.826;2023-10-19T11:33:47;3.30;;;2.40;;
20140;SDS011;10231;47.702;9.826;2023-10-19T11:36:14;2.60;;;2.30;;
20140;SDS011;10231;47.702;9.826;2023-10-19T11:38:41;3.43;;;2.57;;
20140;SDS011;10231;47.702;9.826;2023-10-19T11:41:08;4.47;;;2.70;;
20140;SDS011;10231;47.702;9.826;2023-10-19T11:43:35;3.10;;;2.80;;
20140;SDS011;10231;47.702;9.826;2023-10-19T11:46:01;3.20;;;2.47;;
20140;SDS011;10231;47.702;9.826;2023-10-19T11:48:29;3.50;;;3.20;;
20140;SDS011;10231;47.702;9.826;2023-10-19T11:50:56;3.40;;;2.60;;
20140;SDS011;10231;47.702;9.826;2023-10-19T11:53:22;3.30;;;2.60;;
20140;SDS011;10231;47.702;9.826;2023-10-19T11:55:48;2.60;;;2.20;;
20140;SDS011;10231;47.702;9.826;2023-10-19T11:58:14;4.03;;;2.77;;
20140;SDS011;10231;47.702;9.826;2023-10-19T12:00:40;3.23;;;2.53;;
20140;SDS011;10231;47.702;9.826;2023-10-19T12:03:08;3.60;;;2.33;;
20140;SDS011;10231;47.702;9.826;2023-10-19T12:05:35;2.43;;;2.03;;
20140;SDS011;10231;47.702;9.826;2023-10-19T12:08:02;1.60;;;1.50;;
20140;SDS011;10231;47.702;9.826;2023-10-19T12:10:28;2.10;;;2.00;;
20140;SDS011;10231;47.702;9.826;2023-10-19T12:13:03;2.10;;;1.90;;
20140;SDS011;10231;47.702;9.826;2023-10-19T12:15:31;5.13;;;2.23;;
20140;SDS011;10231;47.702;9.826;2023-10-19T12:17:57;4.80;;;2.93;;
20140;SDS011;10231;47.702;9.826;2023-10-19T12:20:24;3.97;;;2.90;;
20140;SDS011;10231;47.702;9.826;2023-10-19T12:22:50;3.83;;;2.87;;
20140;SDS011;10231;47.702;9.826;2023-10-19T12:25:21;2.40;;;2.07;;
20140;SDS011;10231;47.702;9.826;2023-10-19T12:28:00;4.23;;;2.10;;
20140;SDS011;10231;47.702;9.826;2023-10-19T12:30:25;2.80;;;1.83;;
20140;SDS011;10231;47.702;9.826;2023-10-19T12:32:56;2.53;;;2.20;;
20140;SDS011;10231;47.702;9.826;2023-10-19T12:35:25;2.47;;;2.23;;
20140;SDS011;10231;47.702;9.826;2023-10-19T12:38:07;2.17;;;1.90;;
20140;SDS011;10231;47.702;9.826;2023-10-19T12:40:37;3.13;;;2.27;;
20140;SDS011;10231;47.702;9.826;2023-10-19T12:43:03;2.67;;;1.83;;
20140;SDS011;10231;47.702;9.826;2023-10-19T12:45:32;2.50;;;2.30;;
20140;SDS011;10231;47.702;9.826;2023-10-19T12:48:02;3.93;;;2.20;;
20140;SDS011;10231;47.702;9.826;2023-10-19T12:50:29;2.40;;;2.07;;
20140;SDS011;10231;47.702;9.826;2023-10-19T12:52:55;2.43;;;1.93;;
20140;SDS011;10231;47.702;9.826;2023-10-19T12:55:21;2.50;;;2.30;;
20140;SDS011;10231;47.702;9.826;2023-10-19T12:57:47;2.77;;;2.57;;
20140;SDS011;10231;47.702;9.826;2023-10-19T13:00:12;3.13;;;2.63;;
20140;SDS011;10231;47.702;9.826;2023-10-19T13:03:01;5.67;;;3.70;;
20140;SDS011;10231;47.702;9.826;2023-10-19T13:05:33;3.93;;;3.27;;
20140;SDS011;10231;47.702;9.826;2023-10-19T13:08:00;4.13;;;3.40;;
20140;SDS011;10231;47.702;9.826;2023-10-19T13:10:29;4.03;;;3.73;;
20140;SDS011;10231;47.702;9.826;2023-10-19T13:13:02;4.27;;;3.63;;
20140;SDS011;10231;47.702;9.826;2023-10-19T13:15:34;4.43;;;4.03;;
20140;SDS011;10231;47.702;9.826;2023-10-19T13:18:01;3.53;;;3.23;;
20140;SDS011;10231;47.702;9.826;2023-10-19T13:20:28;3.13;;;2.37;;
20140;SDS011;10231;47.702;9.826;2023-10-19T13:23:03;2.83;;;2.47;;
20140;SDS011;10231;47.702;9.826;2023-10-19T13:25:31;4.40;;;2.33;;
20140;SDS011;10231;47.702;9.826;2023-10-19T13:28:05;5.53;;;2.93;;
20140;SDS011;10231;47.702;9.826;2023-10-19T13:30:35;2.47;;;2.30;;
20140;SDS011;10231;47.702;9.826;2023-10-19T13:33:21;2.20;;;2.00;;
20140;SDS011;10231;47.702;9.826;2023-10-19T13:35:48;2.17;;;2.00;;
20140;SDS011;10231;47.702;9.826;2023-10-19T13:38:15;2.40;;;2.00;;
20140;SDS011;10231;47.702;9.826;2023-10-19T13:40:42;2.40;;;2.20;;
20140;SDS011;10231;47.702;9.826;2023-10-19T13:43:09;3.33;;;2.47;;
20140;SDS011;10231;47.702;9.826;2023-10-19T13:45:38;3.30;;;2.50;;
20140;SDS011;10231;47.702;9.826;2023-10-19T13:48:06;3.20;;;2.87;;
20140;SDS011;10231;47.702;9.826;2023-10-19T13:50:33;3.17;;;2.90;;
20140;SDS011;10231;47.702;9.826;2023-10-19T13:53:00;4.33;;;3.30;;
20140;SDS011;10231;47.702;9.826;2023-10-19T13:55:29;3.77;;;3.10;;
20140;SDS011;10231;47.702;9.826;2023-10-19T13:57:55;4.27;;;3.33;;
20140;SDS011;10231;47.702;9.826;2023-10-19T14:00:21;3.43;;;3.13;;
20140;SDS011;10231;47.702;9.826;2023-10-19T14:02:49;4.00;;;2.97;;
20140;SDS011;10231;47.702;9.826;2023-10-19T14:05:19;3.93;;;3.00;;
20140;SDS011;10231;47.702;9.826;2023-10-19T14:07:48;3.60;;;2.50;;
20140;SDS011;10231;47.702;9.826;2023-10-19T14:10:14;2.83;;;2.63;;
20140;SDS011;10231;47.702;9.826;2023-10-19T14:12:39;3.30;;;3.00;;
20140;SDS011;10231;47.702;9.826;2023-10-19T14:15:19;3.47;;;3.17;;
20140;SDS011;10231;47.702;9.826;2023-10-19T14:17:45;3.30;;;3.00;;
20140;SDS011;10231;47.702;9.826;2023-10-19T14:20:12;3.17;;;2.97;;
20140;SDS011;10231;47.702;9.826;2023-10-19T14:22:43;5.67;;;3.30;;
20140;SDS011;10231;47.702;9.826;2023-10-19T14:25:15;3.33;;;3.03;;
20140;SDS011;10231;47.702;9.826;2023-10-19T14:27:41;2.90;;;2.67;;
20140;SDS011;10231;47.702;9.826;2023-10-19T14:30:12;3.33;;;2.50;;
20140;SDS011;10231;47.702;9.826;2023-10-19T14:32:39;5.80;;;3.23;;
20140;SDS011;10231;47.702;9.826;2023-10-19T14:35:09;5.10;;;2.60;;
20140;SDS011;10231;47.702;9.826;2023-10-19T14:37:41;2.77;;;2.57;;
20140;SDS011;10231;47.702;9.826;2023-10-19T14:40:09;3.03;;;2.70;;
20140;SDS011;10231;47.702;9.826;2023-10-19T14:42:36;2.97;;;2.30;;
20140;SDS011;10231;47.702;9.826;2023-10-19T14:45:07;3.13;;;2.57;;
20140;SDS011;10231;47.702;9.826;2023-10-19T14:47:37;2.90;;;2.60;;
20140;SDS011;10231;47.702;9.826;2023-10-19T14:50:06;4.57;;;2.70;;
20140;SDS011;10231;47.702;9.826;2023-10-19T14:52:36;3.67;;;2.20;;
20140;SDS011;10231;47.702;9.826;2023-10-19T14:55:04;2.63;;;2.43;;
20140;SDS011;10231;47.702;9.826;2023-10-19T14:57:31;3.47;;;2.50;;
20140;SDS011;10231;47.702;9.826;2023-10-19T14:59:58;2.10;;;2.00;;
20140;SDS011;10231;47.702;9.826;2023-10-19T15:02:32;2.53;;;2.03;;